Martin Phong Ni Watt Breunig Germany Martin Phong Ni Watt Breunig
Pivot (5) : Ewe Baskets Oldenburg / Germany
DT : 18 Şubat 1992 ( Leverkusen, Germany )
Boy:
203cm
Kilo:
103kg
Martin Phong Ni Watt Breunig 12

Martin Phong Ni Watt Breunig

BBL
  • BBL
  • NCAA Division I
  • Basketball Champions League
  • FIBA Europe Cup
  • BBL Cup
2020/2021
  • 2020/2021
  • 2019/2020
  • 2018/2019
  • 2017/2018
  • 2016/2017
Tarih Maçlar S R A B HR SR TK
14.04.21 4 3 1 - - - 3 4
10.04.21 10 6 4 1 - 2 4 2
04.04.21 6 10 4 - - 4 6 -
26.03.21 10 2 - - 2 1 1 -
19.03.21 10 4 - - 1 3 1 -
14.03.21 13 3 - - - - 3 -
09.03.21 10 7 2 1 - 4 3 -
06.03.21 2 1 - - - - 1 1
28.02.21 2 4 - - - 2 2 2
14.02.21 4 2 - - - - 2 -
12.02.21 8 4 1 - - 1 3 -
10.02.21 4 4 1 1 1 2 2 2
07.02.21 9 3 - - - 2 1 -
30.01.21 8 2 2 - - - 2 -
23.01.21 9 3 - 1 - 1 2 -
17.01.21 10 5 - 1 - 3 2 -
09.01.21 2 1 2 2 - - 1 -
03.01.21 6 5 2 1 1 3 2 -
30.12.20 6 8 - 2 - 4 4 -
26.12.20 8 6 - - - 2 4 1
23.12.20 8 6 2 - 1 4 2 -
20.12.20 7 3 - 1 - 1 2 1
12.12.20 3 2 - - - - 2 1
06.12.20 6 3 1 - - 1 2 1
04.12.20 2 1 1 - 1 - 1 -
21.11.20 6 3 1 - - 2 1 -
15.11.20 8 13 - - 1 4 9 2
08.11.20 17 3 2 - - 2 1 -
Maçları sayfasında Martin Phong Ni Watt Breunig adlı oyuncunun aktif olduğu sezonlar içerisinde parkeye çıktığı maçlarda yakaladığı sayı, ribaund, asist, blok, top çalma, hücum ribaundu, savunma ribandu ve top kaybı istatistiklerini bulabilirsiniz. Yapacağınız turnuva seçimine göre oyuncunun o turnuvada oynamış olduğu maçlardaki verileri ekranınıza gelecektir.